Time;durP1;ratioP1;P1;durP2;ratioP2;P2;SDS_P1;SDS_P2;PMS_P1;PMS_P2;Temp;Humidity;BMP_temperature;BMP_pressure;BME280_temperature;BME280_humidity;BME280_pressure;Samples;Min_cycle;Max_cycle;Signal;HPM_P1;HPM_P2
2021/04/05 00:02:04;;;;;;;;;;;;;;;5.15;nan;98613.56;5023152;28;19921;-77
2021/04/05 00:04:30;;;;;;;;;;;;;;;5.39;nan;98594.47;5023666;28;19921;-77
2021/04/05 00:06:55;;;;;;;;;;;;;;;5.09;nan;98593.28;5023822;28;19913;-76
2021/04/05 00:09:20;;;;;;;;;;;;;;;5.34;nan;98583.50;5024485;28;19923;-77
2021/04/05 00:11:46;;;;;;;;;;;;;;;5.41;nan;98580.78;5025759;28;19981;-78
2021/04/05 00:14:11;;;;;;;;;;;;;;;5.38;nan;98585.97;5023794;28;19917;-78
2021/04/05 00:16:37;;;;;;;;;;;;;;;5.57;nan;98575.41;5024279;28;20510;-76
2021/04/05 00:19:02;;;;;;;;;;;;;;;5.14;nan;98571.06;5024630;28;19925;-76
2021/04/05 00:21:29;;;;;;;;;;;;;;;5.18;nan;98558.22;5023746;28;20386;-76
2021/04/05 00:23:54;;;;;;;;;;;;;;;5.41;nan;98557.81;5024290;28;19927;-77
2021/04/05 00:26:20;;;;;;;;;;;;;;;5.67;nan;98541.13;5022533;28;19952;-77
2021/04/05 00:28:46;;;;;;;;;;;;;;;5.73;nan;98525.69;5006454;28;19914;-76
2021/04/05 00:31:11;;;;;;;;;;;;;;;5.64;nan;98531.00;5022003;28;20008;-76
2021/04/05 00:33:37;;;;;;;;;;;;;;;5.69;nan;98521.50;5022273;28;20000;-76
2021/04/05 00:36:02;;;;;;;;;;;;;;;5.33;nan;98520.50;5021910;28;19948;-78
2021/04/05 00:38:28;;;;;;;;;;;;;;;5.39;nan;98518.69;5022826;28;19991;-76
2021/04/05 00:40:59;;;;;;;;;;;;;;;5.26;nan;98514.69;5022742;28;19925;-77
2021/04/05 00:43:24;;;;;;;;;;;;;;;5.36;nan;98511.09;5008265;28;20385;-77
2021/04/05 00:45:50;;;;;;;;;;;;;;;5.49;nan;98505.75;5023505;28;19921;-78
2021/04/05 00:48:15;;;;;;;;;;;;;;;5.57;nan;98499.63;5023446;28;19916;-77
2021/04/05 00:50:43;;;;;;;;;;;;;;;5.34;nan;98491.56;5023622;28;19917;-78
2021/04/05 00:53:09;;;;;;;;;;;;;;;5.39;nan;98475.28;5022652;28;19917;-77
2021/04/05 00:55:35;;;;;;;;;;;;;;;5.58;nan;98485.13;5023580;28;19930;-78
2021/04/05 00:58:01;;;;;;;;;;;;;;;5.73;nan;98466.94;5022776;28;19917;-78
2021/04/05 01:00:36;;;;;;;;;;;;;;;5.53;nan;98472.44;5021625;28;20275;-75
2021/04/05 01:03:02;;;;;;;;;;;;;;;5.67;nan;98456.84;5024605;28;19921;-78
2021/04/05 01:05:27;;;;;;;;;;;;;;;5.49;nan;98450.38;5006413;28;20334;-78
2021/04/05 01:07:53;;;;;;;;;;;;;;;5.53;nan;98451.19;5023563;28;19959;-78
2021/04/05 01:10:18;;;;;;;;;;;;;;;5.49;nan;98447.00;5022924;28;19916;-78
2021/04/05 01:12:44;;;;;;;;;;;;;;;5.73;nan;98443.94;5005142;28;20390;-78
2021/04/05 01:15:10;;;;;;;;;;;;;;;5.77;nan;98437.03;5024542;28;20361;-78
2021/04/05 01:17:36;;;;;;;;;;;;;;;5.52;nan;98449.47;5007588;28;20389;-78
2021/04/05 01:20:03;;;;;;;;;;;;;;;5.57;nan;98423.00;5009007;28;19917;-78
2021/04/05 01:22:28;;;;;;;;;;;;;;;5.60;nan;98425.47;5015644;28;19936;-78
2021/04/05 01:24:54;;;;;;;;;;;;;;;5.66;nan;98416.84;5025787;28;19921;-78
2021/04/05 01:27:19;;;;;;;;;;;;;;;5.44;nan;98407.06;5025899;28;20325;-78
2021/04/05 01:29:44;;;;;;;;;;;;;;;5.77;nan;98381.69;5024971;28;19917;-78
2021/04/05 01:32:10;;;;;;;;;;;;;;;5.95;nan;98371.94;5020920;28;19936;-78
2021/04/05 01:34:38;;;;;;;;;;;;;;;5.55;nan;98380.47;5024641;28;20344;-78
2021/04/05 01:37:05;;;;;;;;;;;;;;;5.77;nan;98363.81;5024326;28;20339;-78
2021/04/05 01:39:33;;;;;;;;;;;;;;;5.89;nan;98351.63;5022679;28;19925;-78
2021/04/05 01:41:58;;;;;;;;;;;;;;;5.48;nan;98363.63;5021376;28;19925;-77
2021/04/05 01:44:23;;;;;;;;;;;;;;;5.65;nan;98347.00;5022836;28;19924;-78
2021/04/05 01:46:49;;;;;;;;;;;;;;;5.77;nan;98332.28;5006080;28;20014;-78
2021/04/05 01:49:14;;;;;;;;;;;;;;;5.56;nan;98328.50;5021753;28;20004;-78
2021/04/05 01:51:40;;;;;;;;;;;;;;;5.45;nan;98319.41;5005902;28;19917;-78
2021/04/05 01:54:05;;;;;;;;;;;;;;;5.41;nan;98319.50;5022308;28;20379;-78
2021/04/05 01:56:31;;;;;;;;;;;;;;;5.64;nan;98316.41;5022071;28;20358;-78
2021/04/05 01:58:56;;;;;;;;;;;;;;;5.98;nan;98285.00;5021671;28;19921;-78
2021/04/05 02:01:26;;;;;;;;;;;;;;;5.88;nan;98281.75;5020607;28;19932;-78
2021/04/05 02:03:51;;;;;;;;;;;;;;;5.52;nan;98281.78;5021868;28;19952;-78
2021/04/05 02:06:23;;;;;;;;;;;;;;;5.87;nan;98263.03;5021263;28;20386;-78
2021/04/05 02:08:48;;;;;;;;;;;;;;;5.48;nan;98253.81;5005890;28;19924;-78
2021/04/05 02:11:17;;;;;;;;;;;;;;;5.28;nan;98288.28;5021543;28;19917;-78
2021/04/05 02:13:46;;;;;;;;;;;;;;;5.63;nan;98273.84;5023253;28;20011;-78
2021/04/05 02:16:12;;;;;;;;;;;;;;;5.39;nan;98286.31;5022485;28;19921;-78
2021/04/05 02:18:37;;;;;;;;;;;;;;;5.72;nan;98242.97;5021213;28;19960;-78
2021/04/05 02:21:03;;;;;;;;;;;;;;;5.82;nan;98284.50;5022330;28;19972;-78
2021/04/05 02:23:28;;;;;;;;;;;;;;;6.06;nan;98247.28;5022046;28;19920;-78
2021/04/05 02:26:08;;;;;;;;;;;;;;;5.62;nan;98273.03;5005678;28;20711;-78
2021/04/05 02:28:44;;;;;;;;;;;;;;;6.01;nan;98239.72;5021434;28;19917;-78
2021/04/05 02:31:09;;;;;;;;;;;;;;;5.80;nan;98212.97;5021587;28;19936;-78
2021/04/05 02:33:36;;;;;;;;;;;;;;;5.55;nan;98214.47;5021965;28;19917;-78
2021/04/05 02:36:01;;;;;;;;;;;;;;;5.79;nan;98206.22;5003804;28;19920;-78
2021/04/05 02:38:26;;;;;;;;;;;;;;;5.85;nan;98195.81;5019541;28;19979;-78
2021/04/05 02:40:52;;;;;;;;;;;;;;;5.91;nan;98183.75;5021304;28;19916;-78
2021/04/05 02:43:17;;;;;;;;;;;;;;;6.06;nan;98170.59;5021887;28;19932;-78
2021/04/05 02:45:43;;;;;;;;;;;;;;;5.94;nan;98173.47;5022233;28;19913;-78
2021/04/05 02:48:08;;;;;;;;;;;;;;;5.70;nan;98165.53;5022099;28;19924;-78
2021/04/05 02:50:35;;;;;;;;;;;;;;;5.67;nan;98152.84;5021019;28;19917;-76
2021/04/05 02:53:03;;;;;;;;;;;;;;;6.18;nan;98154.94;5019818;28;19921;-77
2021/04/05 02:55:29;;;;;;;;;;;;;;;5.83;nan;98166.91;5020851;28;19928;-77
2021/04/05 02:57:54;;;;;;;;;;;;;;;6.17;nan;98148.13;5020742;28;19921;-77
2021/04/05 03:00:20;;;;;;;;;;;;;;;5.93;nan;98166.66;5019999;28;20370;-76
2021/04/05 03:02:46;;;;;;;;;;;;;;;5.99;nan;98162.25;5022289;28;20275;-76
2021/04/05 03:05:11;;;;;;;;;;;;;;;6.24;nan;98159.84;5019766;28;20301;-77
2021/04/05 03:07:37;;;;;;;;;;;;;;;5.90;nan;98174.41;5019705;28;20023;-77
2021/04/05 03:10:06;;;;;;;;;;;;;;;5.84;nan;98166.03;5020354;28;19918;-77
2021/04/05 03:12:32;;;;;;;;;;;;;;;6.16;nan;98145.59;5019694;28;20017;-77
2021/04/05 03:14:58;;;;;;;;;;;;;;;6.21;nan;98149.72;5020420;28;19921;-77
2021/04/05 03:17:23;;;;;;;;;;;;;;;6.34;nan;98134.03;5021477;28;19928;-77
2021/04/05 03:19:48;;;;;;;;;;;;;;;6.38;nan;98139.00;5020171;28;19925;-77
2021/04/05 03:22:14;;;;;;;;;;;;;;;6.08;nan;98138.16;5019672;28;19921;-76
2021/04/05 03:24:39;;;;;;;;;;;;;;;6.42;nan;98132.09;5020865;28;19924;-76
2021/04/05 03:27:05;;;;;;;;;;;;;;;6.27;nan;98118.03;5002898;28;19928;-77
2021/04/05 03:29:32;;;;;;;;;;;;;;;6.58;nan;98112.84;5021472;28;19973;-77
2021/04/05 03:31:57;;;;;;;;;;;;;;;6.30;nan;98119.69;5019929;28;19932;-77
2021/04/05 03:34:23;;;;;;;;;;;;;;;6.64;nan;98107.56;5019873;28;19921;-77
2021/04/05 03:36:50;;;;;;;;;;;;;;;6.42;nan;98102.25;5019401;28;20302;-76
2021/04/05 03:39:15;;;;;;;;;;;;;;;6.61;nan;98102.50;5020741;28;20758;-76
2021/04/05 03:41:44;;;;;;;;;;;;;;;6.42;nan;98101.41;5018854;28;19921;-76
2021/04/05 03:44:12;;;;;;;;;;;;;;;6.43;nan;98097.94;5020141;28;19924;-76
2021/04/05 03:46:38;;;;;;;;;;;;;;;6.24;nan;98097.66;5020103;28;20282;-77
2021/04/05 03:49:19;;;;;;;;;;;;;;;6.36;nan;98087.06;5004072;28;20379;-76
2021/04/05 03:51:44;;;;;;;;;;;;;;;6.46;nan;98074.88;5019650;28;19917;-76
2021/04/05 03:54:10;;;;;;;;;;;;;;;6.59;nan;98063.38;5020342;28;19964;-76
2021/04/05 03:56:36;;;;;;;;;;;;;;;6.46;nan;98062.06;5023403;28;19917;-76
2021/04/05 03:59:04;;;;;;;;;;;;;;;6.37;nan;98049.56;5023653;28;19920;-76
2021/04/05 04:01:30;;;;;;;;;;;;;;;6.35;nan;98041.94;5024615;28;19949;-76
2021/04/05 04:04:07;;;;;;;;;;;;;;;6.41;nan;98031.53;5023719;28;19979;-77
2021/04/05 04:06:56;;;;;;;;;;;;;;;6.38;nan;98033.31;5007514;28;19927;-76
2021/04/05 04:09:22;;;;;;;;;;;;;;;6.20;nan;98017.69;5023224;28;19921;-77
2021/04/05 04:11:48;;;;;;;;;;;;;;;6.59;nan;97999.44;5023689;28;19921;-76
2021/04/05 04:14:13;;;;;;;;;;;;;;;6.41;nan;98002.53;5022914;28;20011;-77
2021/04/05 04:16:38;;;;;;;;;;;;;;;6.43;nan;97991.41;5023441;28;19928;-77
2021/04/05 04:19:04;;;;;;;;;;;;;;;6.05;nan;97992.56;5023372;28;19917;-77
2021/04/05 04:21:30;;;;;;;;;;;;;;;6.63;nan;97974.56;5023036;28;19931;-77
2021/04/05 04:23:56;;;;;;;;;;;;;;;6.33;nan;97989.16;5022861;28;20358;-76
2021/04/05 04:26:22;;;;;;;;;;;;;;;6.50;nan;97976.69;5023519;28;19924;-77
2021/04/05 04:28:47;;;;;;;;;;;;;;;6.41;nan;97970.16;5022682;28;19921;-76
2021/04/05 04:31:12;;;;;;;;;;;;;;;6.36;nan;97978.84;5022891;28;20665;-77
2021/04/05 04:33:38;;;;;;;;;;;;;;;6.06;nan;97986.56;5004671;28;20027;-77
2021/04/05 04:36:04;;;;;;;;;;;;;;;6.33;nan;97961.88;5023266;28;19914;-77
2021/04/05 04:38:29;;;;;;;;;;;;;;;6.17;nan;97974.28;5022883;28;19917;-77
2021/04/05 04:40:55;;;;;;;;;;;;;;;6.09;nan;97976.28;5023041;28;19925;-77
2021/04/05 04:43:20;;;;;;;;;;;;;;;6.39;nan;97973.66;5022587;28;19932;-77
2021/04/05 04:45:46;;;;;;;;;;;;;;;6.14;nan;97984.63;5023612;28;19917;-77
2021/04/05 04:48:11;;;;;;;;;;;;;;;6.15;nan;97965.84;5023020;28;20012;-77
2021/04/05 04:50:37;;;;;;;;;;;;;;;6.19;nan;97967.41;5022477;28;19943;-76
2021/04/05 04:53:02;;;;;;;;;;;;;;;5.96;nan;97974.97;5024524;28;19917;-76
2021/04/05 04:55:28;;;;;;;;;;;;;;;6.02;nan;97959.41;5024083;28;19917;-76
2021/04/05 04:57:54;;;;;;;;;;;;;;;5.81;nan;97966.81;5022558;28;19913;-77
2021/04/05 05:00:19;;;;;;;;;;;;;;;6.02;nan;97974.75;5022894;28;19959;-77
2021/04/05 05:02:46;;;;;;;;;;;;;;;5.86;nan;97964.13;5022472;28;20375;-77
2021/04/05 05:05:12;;;;;;;;;;;;;;;5.79;nan;97963.50;5023288;28;19956;-77
2021/04/05 05:07:40;;;;;;;;;;;;;;;5.82;nan;97963.41;5004341;28;20040;-76
2021/04/05 05:10:10;;;;;;;;;;;;;;;6.23;nan;97951.09;5022448;28;19921;-77
2021/04/05 05:12:35;;;;;;;;;;;;;;;6.05;nan;97938.91;5022583;28;19924;-76
2021/04/05 05:15:00;;;;;;;;;;;;;;;5.91;nan;97936.75;5023014;28;19917;-77
2021/04/05 05:17:26;;;;;;;;;;;;;;;5.86;nan;97934.31;5022327;28;19960;-77
2021/04/05 05:19:51;;;;;;;;;;;;;;;6.22;nan;97935.81;5021882;28;19940;-77
2021/04/05 05:22:17;;;;;;;;;;;;;;;6.25;nan;97921.22;5022326;28;19980;-77
2021/04/05 05:24:43;;;;;;;;;;;;;;;5.98;nan;97919.53;5020918;28;19921;-77
2021/04/05 05:27:09;;;;;;;;;;;;;;;6.37;nan;97925.09;5005312;28;19924;-76
2021/04/05 05:29:34;;;;;;;;;;;;;;;6.10;nan;97920.88;5005893;28;19917;-77
2021/04/05 05:31:59;;;;;;;;;;;;;;;6.20;nan;97917.97;5022623;28;19925;-77
2021/04/05 05:34:25;;;;;;;;;;;;;;;6.42;nan;97913.00;5022685;28;19932;-76
2021/04/05 05:36:50;;;;;;;;;;;;;;;6.10;nan;97914.03;5022476;28;20011;-76
2021/04/05 05:39:16;;;;;;;;;;;;;;;6.15;nan;97907.03;5018501;28;19921;-76
2021/04/05 05:42:00;;;;;;;;;;;;;;;6.14;nan;97913.06;5003695;28;19948;-75
2021/04/05 05:44:28;;;;;;;;;;;;;;;6.15;nan;97903.66;5020043;28;19927;-76
2021/04/05 05:46:57;;;;;;;;;;;;;;;6.46;nan;97903.50;5019984;28;19917;-76
2021/04/05 05:49:28;;;;;;;;;;;;;;;6.36;nan;97900.41;5019405;28;19917;-75
2021/04/05 05:51:59;;;;;;;;;;;;;;;6.19;nan;97906.06;5021179;28;19947;-76
2021/04/05 05:54:33;;;;;;;;;;;;;;;5.97;nan;97905.06;5020397;28;20584;-80
2021/04/05 05:57:18;;;;;;;;;;;;;;;5.84;nan;97896.94;5021305;28;19917;-76
2021/04/05 05:59:46;;;;;;;;;;;;;;;5.95;nan;97901.72;5021029;28;19921;-77
2021/04/05 06:02:12;;;;;;;;;;;;;;;6.05;nan;97896.28;5019794;28;19992;-76
2021/04/05 06:04:40;;;;;;;;;;;;;;;6.30;nan;97892.13;5019418;28;19933;-76
2021/04/05 06:07:16;;;;;;;;;;;;;;;6.21;nan;97883.84;5021185;28;19931;-76
2021/04/05 06:09:53;;;;;;;;;;;;;;;6.27;nan;97883.66;5003023;28;19927;-76
2021/04/05 06:12:37;;;;;;;;;;;;;;;6.14;nan;97866.22;5018903;28;19917;-76
2021/04/05 06:15:19;;;;;;;;;;;;;;;6.20;nan;97859.19;5017804;28;19993;-76
2021/04/05 06:18:05;;;;;;;;;;;;;;;6.00;nan;97861.56;5018374;28;20267;-76
2021/04/05 06:20:50;;;;;;;;;;;;;;;6.36;nan;97856.09;5017610;28;19921;-76
2021/04/05 06:23:34;;;;;;;;;;;;;;;5.82;nan;97861.19;5008896;28;19925;-76
2021/04/05 06:26:03;;;;;;;;;;;;;;;5.81;nan;97851.03;5019991;28;19927;-77
2021/04/05 06:28:37;;;;;;;;;;;;;;;5.94;nan;97843.81;5018282;28;20393;-77
2021/04/05 06:31:12;;;;;;;;;;;;;;;6.30;nan;97840.97;5018002;28;20003;-77
2021/04/05 06:33:39;;;;;;;;;;;;;;;6.07;nan;97851.06;5019493;28;19932;-77
2021/04/05 06:36:23;;;;;;;;;;;;;;;5.89;nan;97830.34;5017743;28;20367;-77
2021/04/05 06:38:50;;;;;;;;;;;;;;;6.12;nan;97827.91;5019283;28;19957;-77
2021/04/05 06:41:24;;;;;;;;;;;;;;;6.18;nan;97826.84;5018146;28;20187;-77
2021/04/05 06:43:52;;;;;;;;;;;;;;;5.98;nan;97824.97;5018706;28;19925;-77
2021/04/05 06:46:22;;;;;;;;;;;;;;;5.93;nan;97824.25;5017101;28;19920;-77
2021/04/05 06:49:02;;;;;;;;;;;;;;;6.06;nan;97815.31;5017982;28;20028;-77
2021/04/05 06:51:37;;;;;;;;;;;;;;;6.02;nan;97804.38;5018370;28;20295;-77
2021/04/05 06:54:21;;;;;;;;;;;;;;;5.94;nan;97820.81;5020120;28;19917;-77
2021/04/05 06:56:55;;;;;;;;;;;;;;;5.76;nan;97810.28;5020138;28;19923;-78
2021/04/05 06:59:39;;;;;;;;;;;;;;;5.58;nan;97816.81;5019649;28;20394;-78
2021/04/05 07:02:05;;;;;;;;;;;;;;;6.06;nan;97807.66;5011579;28;20062;-77
2021/04/05 07:04:44;;;;;;;;;;;;;;;5.77;nan;97814.53;5013829;28;20008;-77
2021/04/05 07:07:30;;;;;;;;;;;;;;;5.66;nan;97808.94;5017452;28;19935;-78
2021/04/05 07:10:02;;;;;;;;;;;;;;;5.55;nan;97803.31;5016748;28;19921;-78
2021/04/05 07:12:28;;;;;;;;;;;;;;;5.69;nan;97813.09;5018641;28;19970;-78
2021/04/05 07:15:08;;;;;;;;;;;;;;;5.52;nan;97809.34;5018049;28;19921;-77
2021/04/05 07:17:52;;;;;;;;;;;;;;;5.39;nan;97801.22;5017302;28;19921;-77
2021/04/05 07:20:21;;;;;;;;;;;;;;;5.83;nan;97798.97;5017439;28;19932;-78
2021/04/05 07:22:50;;;;;;;;;;;;;;;5.78;nan;97790.66;5017417;28;19984;-77
2021/04/05 07:25:27;;;;;;;;;;;;;;;5.96;nan;97785.88;5016993;28;19917;-78
2021/04/05 07:27:53;;;;;;;;;;;;;;;5.84;nan;97772.56;5000358;28;19921;-78
2021/04/05 07:30:37;;;;;;;;;;;;;;;5.82;nan;97765.84;5017818;28;20405;-78
2021/04/05 07:33:02;;;;;;;;;;;;;;;6.08;nan;97767.56;5024349;28;20531;-79
2021/04/05 07:35:40;;;;;;;;;;;;;;;5.95;nan;97754.34;5024922;28;19972;-78
2021/04/05 07:38:18;;;;;;;;;;;;;;;5.87;nan;97762.25;5024267;28;20438;-79
2021/04/05 07:40:48;;;;;;;;;;;;;;;5.91;nan;97762.13;5025040;28;19920;-78
2021/04/05 07:43:29;;;;;;;;;;;;;;;5.94;nan;97746.72;5024288;28;19952;-77
2021/04/05 07:45:57;;;;;;;;;;;;;;;6.14;nan;97754.56;5023155;28;20290;-78
2021/04/05 07:48:23;;;;;;;;;;;;;;;6.00;nan;97756.78;5023631;28;19928;-78
2021/04/05 07:51:07;;;;;;;;;;;;;;;3.36;nan;97892.25;5024671;28;19921;-79
2021/04/05 07:53:35;;;;;;;;;;;;;;;3.45;nan;97906.50;5025767;28;19936;-78
2021/04/05 07:56:14;;;;;;;;;;;;;;;-144.34;100.00;60189.88;5022551;28;19925;-79
2021/04/05 07:58:42;;;;;;;;;;;;;;;-144.34;100.00;60189.88;5025229;28;19979;-78
2021/04/05 08:01:36;;;;;;;;;;;;;;;-144.34;100.00;60189.88;5026688;28;19920;-78
2021/04/05 08:04:02;;;;;;;;;;;;;;;-144.34;100.00;60189.88;5011958;28;20372;-79
2021/04/05 08:06:30;;;;;;;;;;;;;;;-144.34;100.00;60189.88;5025427;28;19983;-78
2021/04/05 08:08:57;;;;;;;;;;;;;;;-144.34;100.00;60189.88;5025208;28;19987;-79
2021/04/05 08:11:25;;;;;;;;;;;;;;;-144.34;100.00;60189.88;5011227;28;19924;-78
2021/04/05 08:13:55;;;;;;;;;;;;;;;-144.34;100.00;60189.88;5024134;28;20282;-79
2021/04/05 08:16:28;;;;;;;;;;;;;;;-144.34;100.00;60189.88;5027073;28;19948;-79
2021/04/05 08:19:08;;;;;;;;;;;;;;;-144.34;100.00;60189.88;5036004;28;19932;-79
2021/04/05 08:21:36;;;;;;;;;;;;;;;-144.34;100.00;60189.88;5029267;28;19924;-79
2021/04/05 08:24:19;;;;;;;;;;;;;;;-144.34;100.00;60189.88;5012763;28;19953;-79
2021/04/05 08:26:54;;;;;;;;;;;;;;;-144.34;100.00;60189.88;5033679;28;19974;-79
2021/04/05 08:29:49;;;;;;;;;;;;;;;-144.34;100.00;60189.88;5035087;28;20019;-77
2021/04/05 08:32:22;;;;;;;;;;;;;;;-144.34;100.00;60189.88;5055370;28;19928;-79
2021/04/05 08:35:00;;;;;;;;;;;;;;;-144.34;100.00;60189.88;5030871;28;20007;-79
2021/04/05 08:37:26;;;;;;;;;;;;;;;-144.34;100.00;60189.88;5062478;28;19921;-79
2021/04/05 08:40:10;;;;;;;;;;;;;;;-144.34;100.00;60189.88;5063505;28;19917;-79
2021/04/05 08:42:49;;;;;;;;;;;;;;;-144.34;100.00;60189.88;5037022;28;20431;-79
2021/04/05 08:45:16;;;;;;;;;;;;;;;-144.34;100.00;60189.88;5044357;28;19939;-79
2021/04/05 08:47:43;;;;;;;;;;;;;;;-144.34;100.00;60189.88;5044034;28;19920;-78
2021/04/05 08:50:09;;;;;;;;;;;;;;;-144.34;100.00;60189.88;5044929;28;20546;-79
2021/04/05 08:52:44;;;;;;;;;;;;;;;-144.34;100.00;60189.88;5027752;28;19963;-79
2021/04/05 08:55:18;;;;;;;;;;;;;;;-144.34;100.00;60189.88;5045416;28;19977;-78
2021/04/05 08:57:49;;;;;;;;;;;;;;;-144.34;100.00;60189.88;5045598;28;19966;-79
2021/04/05 09:00:14;;;;;;;;;;;;;;;-144.34;100.00;60189.88;5045918;28;19962;-79
2021/04/05 09:02:50;;;;;;;;;;;;;;;-144.34;100.00;60189.88;5015427;28;21001;-79
2021/04/05 09:05:26;;;;;;;;;;;;;;;-144.34;100.00;60189.88;5036041;28;20389;-78
2021/04/05 09:07:51;;;;;;;;;;;;;;;-144.34;100.00;60189.88;5047036;28;19923;-78
2021/04/05 09:10:21;;;;;;;;;;;;;;;-144.34;100.00;60189.88;5064104;28;19916;-79
2021/04/05 09:12:46;;;;;;;;;;;;;;;-144.34;100.00;60189.88;5045521;28;19965;-78
2021/04/05 09:15:27;;;;;;;;;;;;;;;-144.34;100.00;60189.88;5042455;28;19924;-79
2021/04/05 09:17:58;;;;;;;;;;;;;;;-144.34;100.00;60189.88;5042429;28;19920;-78
2021/04/05 09:20:42;;;;;;;;;;;;;;;-144.34;100.00;60189.88;5044504;28;20043;-79
2021/04/05 09:23:26;;;;;;;;;;;;;;;-144.34;100.00;60189.88;5042849;28;19924;-79
2021/04/05 09:26:11;;;;;;;;;;;;;;;-144.34;100.00;60189.88;5036220;28;19920;-78
2021/04/05 09:28:56;;;;;;;;;;;;;;;-144.34;100.00;60189.88;5037051;28;19966;-78
2021/04/05 09:31:28;;;;;;;;;;;;;;;-144.34;100.00;60189.88;5048840;28;20032;-78
2021/04/05 09:34:09;;;;;;;;;;;;;;;-144.34;100.00;60189.88;5045318;28;19920;-79
2021/04/05 09:36:48;;;;;;;;;;;;;;;-144.34;100.00;60189.88;5028118;28;19920;-79
2021/04/05 09:39:21;;;;;;;;;;;;;;;-144.34;100.00;60189.88;5045327;28;19920;-80
2021/04/05 09:42:06;;;;;;;;;;;;;;;-144.34;100.00;60189.88;5043354;28;19916;-78
2021/04/05 09:44:49;;;;;;;;;;;;;;;-144.34;100.00;60189.88;5062522;28;20527;-78
2021/04/05 09:47:23;;;;;;;;;;;;;;;-144.34;100.00;60189.88;5062612;28;20589;-76
2021/04/05 09:49:58;;;;;;;;;;;;;;;1.01;nan;98040.53;5044269;28;20014;-77
2021/04/05 09:52:23;;;;;;;;;;;;;;;-144.34;0.00;60189.88;5044195;28;19920;-77
2021/04/05 09:54:52;;;;;;;;;;;;;;;1.24;nan;98028.47;5062316;28;19920;-77
2021/04/05 09:57:37;;;;;;;;;;;;;;;-144.34;100.00;60189.88;5028756;28;20258;-77
2021/04/05 10:00:07;;;;;;;;;;;;;;;-144.34;100.00;60189.88;5032372;28;19924;-77
2021/04/05 10:02:34;;;;;;;;;;;;;;;-144.34;100.00;60189.88;5027149;28;20404;-78
2021/04/05 10:05:00;;;;;;;;;;;;;;;-144.34;100.00;60189.88;5043505;28;19917;-78
2021/04/05 10:07:25;;;;;;;;;;;;;;;-144.34;100.00;60189.88;5043482;28;19923;-77
2021/04/05 10:09:52;;;;;;;;;;;;;;;-144.34;100.00;60189.88;5040528;28;19924;-77
2021/04/05 10:12:18;;;;;;;;;;;;;;;-144.34;100.00;60189.88;5039666;28;20411;-78
2021/04/05 10:14:43;;;;;;;;;;;;;;;-144.34;100.00;60189.88;5041131;28;19959;-78
2021/04/05 10:17:09;;;;;;;;;;;;;;;-144.34;100.00;60189.88;5040257;28;19995;-77
2021/04/05 10:19:35;;;;;;;;;;;;;;;-144.34;100.00;60189.88;5040557;28;19920;-77
2021/04/05 10:22:05;;;;;;;;;;;;;;;-144.34;100.00;60189.88;5040668;28;20390;-77
2021/04/05 10:24:31;;;;;;;;;;;;;;;-144.34;100.00;60189.88;5035616;28;19947;-77
2021/04/05 10:26:57;;;;;;;;;;;;;;;-144.34;100.00;60189.88;5032364;28;20015;-78
2021/04/05 10:29:29;;;;;;;;;;;;;;;-144.34;100.00;60189.88;5039833;28;19912;-80
2021/04/05 10:31:55;;;;;;;;;;;;;;;2.43;nan;98055.78;5027252;28;19935;-77
2021/04/05 10:34:22;;;;;;;;;;;;;;;-144.34;100.00;60189.88;5017114;28;20012;-77
2021/04/05 10:36:48;;;;;;;;;;;;;;;-144.34;100.00;60189.88;5017012;28;20994;-78
2021/04/05 10:39:14;;;;;;;;;;;;;;;-144.34;100.00;60189.88;5016543;28;19917;-77
2021/04/05 10:41:45;;;;;;;;;;;;;;;-144.34;100.00;60189.88;5013809;28;19924;-77
2021/04/05 10:44:12;;;;;;;;;;;;;;;-144.34;100.00;60189.88;5016042;28;19928;-77
2021/04/05 10:46:42;;;;;;;;;;;;;;;-144.34;100.00;60189.88;5016910;28;20468;-77
2021/04/05 10:49:08;;;;;;;;;;;;;;;-144.34;100.00;60189.88;4986118;28;19928;-77
2021/04/05 10:51:39;;;;;;;;;;;;;;;-144.34;100.00;60189.88;5010323;28;19932;-77
2021/04/05 10:54:05;;;;;;;;;;;;;;;-144.34;100.00;60189.88;4996782;28;19952;-77
2021/04/05 10:56:39;;;;;;;;;;;;;;;-144.34;100.00;60189.88;4994520;28;20254;-77
2021/04/05 10:59:31;;;;;;;;;;;;;;;-144.34;100.00;60189.88;5014518;28;19917;-77
2021/04/05 11:01:56;;;;;;;;;;;;;;;-144.34;100.00;60189.88;4985953;28;20540;-77
2021/04/05 11:04:23;;;;;;;;;;;;;;;-144.34;100.00;60189.88;5015615;28;20035;-78
2021/04/05 11:06:48;;;;;;;;;;;;;;;-144.34;100.00;60189.88;5002071;28;20100;-78
2021/04/05 11:09:14;;;;;;;;;;;;;;;-144.34;100.00;60189.88;5002657;28;20039;-77
2021/04/05 11:11:39;;;;;;;;;;;;;;;-144.34;100.00;60189.88;5018114;28;19972;-77
2021/04/05 11:14:05;;;;;;;;;;;;;;;-144.34;100.00;60189.88;5018653;28;19979;-77
2021/04/05 11:16:30;;;;;;;;;;;;;;;-144.34;100.00;60189.88;5017832;28;19950;-77
2021/04/05 11:18:59;;;;;;;;;;;;;;;-144.34;100.00;60189.88;5017820;28;19983;-78
2021/04/05 11:21:38;;;;;;;;;;;;;;;-144.34;100.00;60189.88;5017885;28;19928;-78
2021/04/05 11:24:04;;;;;;;;;;;;;;;-144.34;100.00;60189.88;5018614;28;20032;-77
2021/04/05 11:26:34;;;;;;;;;;;;;;;-144.34;100.00;60189.88;5000450;28;20428;-77
2021/04/05 11:29:05;;;;;;;;;;;;;;;-144.34;100.00;60189.88;5002079;28;19916;-78
2021/04/05 11:31:39;;;;;;;;;;;;;;;-144.34;100.00;60189.88;5033799;28;20420;-78
2021/04/05 11:34:04;;;;;;;;;;;;;;;-144.34;100.00;60189.88;5042885;28;19959;-78
2021/04/05 11:36:42;;;;;;;;;;;;;;;-144.34;100.00;60189.88;5027043;28;19975;-77
2021/04/05 11:39:20;;;;;;;;;;;;;;;-144.34;100.00;60189.88;5042685;28;19920;-78
2021/04/05 11:41:45;;;;;;;;;;;;;;;-144.34;100.00;60189.88;5040363;28;19920;-78
2021/04/05 11:44:11;;;;;;;;;;;;;;;-144.34;100.00;60189.88;5026948;28;20351;-78
2021/04/05 11:46:37;;;;;;;;;;;;;;;-144.34;100.00;60189.88;5042909;28;20004;-77
2021/04/05 11:49:03;;;;;;;;;;;;;;;-144.34;100.00;60189.88;5043203;28;20449;-78
2021/04/05 11:51:30;;;;;;;;;;;;;;;-144.34;100.00;60189.88;5060596;28;20270;-77
2021/04/05 11:53:56;;;;;;;;;;;;;;;-144.34;100.00;60189.88;5043959;28;19970;-78
2021/04/05 11:56:29;;;;;;;;;;;;;;;-144.34;100.00;60189.88;5045437;28;19924;-77
2021/04/05 11:59:08;;;;;;;;;;;;;;;-144.34;100.00;60189.88;5044401;28;19943;-78
2021/04/05 12:01:49;;;;;;;;;;;;;;;-144.34;100.00;60189.88;5060826;28;19916;-78
2021/04/05 12:04:19;;;;;;;;;;;;;;;-144.34;100.00;60189.88;5060424;28;20541;-78
2021/04/05 12:06:48;;;;;;;;;;;;;;;-144.34;100.00;60189.88;5042665;28;19916;-78
2021/04/05 12:09:21;;;;;;;;;;;;;;;-144.34;100.00;60189.88;5043771;28;19917;-78
2021/04/05 12:11:49;;;;;;;;;;;;;;;-144.34;100.00;60189.88;5044236;28;20002;-79
2021/04/05 12:14:21;;;;;;;;;;;;;;;-144.34;100.00;60189.88;5050637;28;19990;-79
2021/04/05 12:16:50;;;;;;;;;;;;;;;-144.34;100.00;60189.88;5045104;28;19982;-77
2021/04/05 12:19:24;;;;;;;;;;;;;;;-144.34;100.00;60189.88;5044678;28;20901;-77
2021/04/05 12:21:51;;;;;;;;;;;;;;;-144.34;100.00;60189.88;5026192;28;19939;-77
2021/04/05 12:24:16;;;;;;;;;;;;;;;-144.34;100.00;60189.88;5043941;28;19924;-77
2021/04/05 12:26:42;;;;;;;;;;;;;;;-144.34;100.00;60189.88;5025682;28;19920;-77
2021/04/05 12:29:08;;;;;;;;;;;;;;;-144.34;100.00;60189.88;5041824;28;19956;-77
2021/04/05 12:31:34;;;;;;;;;;;;;;;-144.34;100.00;60189.88;5031532;28;19933;-77
2021/04/05 12:34:13;;;;;;;;;;;;;;;-144.34;100.00;60189.88;5019033;28;19932;-78
2021/04/05 12:36:39;;;;;;;;;;;;;;;-144.34;100.00;60189.88;5002111;28;20003;-78
2021/04/05 12:39:06;;;;;;;;;;;;;;;-144.34;100.00;60189.88;5019819;28;19968;-77
2021/04/05 12:41:36;;;;;;;;;;;;;;;-144.34;100.00;60189.88;5020615;28;20359;-77
2021/04/05 12:44:02;;;;;;;;;;;;;;;-144.34;100.00;60189.88;5016597;28;20639;-77
2021/04/05 12:46:29;;;;;;;;;;;;;;;-144.34;100.00;60189.88;5000145;28;20017;-78
2021/04/05 12:48:59;;;;;;;;;;;;;;;-144.34;100.00;60189.88;5001988;28;19917;-78
2021/04/05 12:51:27;;;;;;;;;;;;;;;-144.34;100.00;60189.88;5018140;28;19928;-77
2021/04/05 12:53:58;;;;;;;;;;;;;;;-144.34;100.00;60189.88;5000989;28;19923;-77
2021/04/05 12:56:23;;;;;;;;;;;;;;;-144.34;100.00;60189.88;5018099;28;19916;-77
2021/04/05 12:58:55;;;;;;;;;;;;;;;-144.34;100.00;60189.88;5017931;28;19987;-76
2021/04/05 13:01:26;;;;;;;;;;;;;;;-144.34;100.00;60189.88;5015619;28;19934;-76
2021/04/05 13:03:51;;;;;;;;;;;;;;;-144.34;100.00;60189.88;5017523;28;19932;-77
2021/04/05 13:06:21;;;;;;;;;;;;;;;-144.34;100.00;60189.88;5017308;28;20480;-77